createdAt,value
2022-12-11T00:01:57.542Z,101351.66
2022-12-11T00:04:24.227Z,101352.53
2022-12-11T00:06:50.996Z,101344.84
2022-12-11T00:09:18.626Z,101344.84
2022-12-11T00:11:45.459Z,101348.97
2022-12-11T00:14:13.219Z,101344.63
2022-12-11T00:16:40.061Z,101346.25
2022-12-11T00:19:06.897Z,101345.44
2022-12-11T00:21:33.893Z,101344.41
2022-12-11T00:24:00.698Z,101348.66
2022-12-11T00:26:27.207Z,101347.00
2022-12-11T00:28:55.669Z,101344.41
2022-12-11T00:31:23.554Z,101340.88
2022-12-11T00:33:51.208Z,101351.03
2022-12-11T00:36:20.989Z,101348.44
2022-12-11T00:38:48.844Z,101345.00
2022-12-11T00:41:16.379Z,101340.53
2022-12-11T00:43:43.432Z,101344.88
2022-12-11T00:46:11.173Z,101338.75
2022-12-11T00:48:38.388Z,101337.09
2022-12-11T00:51:05.212Z,101330.16
2022-12-11T00:53:32.125Z,101326.66
2022-12-11T00:55:58.621Z,101328.28
2022-12-11T00:58:25.243Z,101329.94
2022-12-11T01:00:52.582Z,101327.25
2022-12-11T01:03:19.170Z,101320.38
2022-12-11T01:05:53.427Z,101326.41
2022-12-11T01:08:20.065Z,101322.97
2022-12-11T01:10:46.953Z,101328.91
2022-12-11T01:13:13.664Z,101314.97
2022-12-11T01:15:45.202Z,101319.22
2022-12-11T01:18:13.808Z,101313.22
2022-12-11T01:20:42.713Z,101317.47
2022-12-11T01:23:13.043Z,101316.53
2022-12-11T01:25:40.388Z,101322.53
2022-12-11T01:28:07.756Z,101325.13
2022-12-11T01:30:34.963Z,101323.38
2022-12-11T01:33:01.465Z,101331.16
2022-12-11T01:35:28.562Z,101333.75
2022-12-11T01:37:55.654Z,101327.59
2022-12-11T01:40:22.568Z,101317.22
2022-12-11T01:42:49.176Z,101325.88
2022-12-11T01:45:21.579Z,101330.19
2022-12-11T01:47:49.232Z,101331.06
2022-12-11T01:50:16.128Z,101334.47
2022-12-11T01:52:47.200Z,101333.53
2022-12-11T01:55:14.390Z,101329.28
2022-12-11T01:57:43.370Z,101333.53
2022-12-11T02:00:10.787Z,101323.16
2022-12-11T02:02:37.355Z,101333.53
2022-12-11T02:05:06.553Z,101321.38
2022-12-11T02:07:45.912Z,101325.75
2022-12-11T02:10:13.244Z,101319.59
2022-12-11T02:12:51.619Z,101323.88
2022-12-11T02:15:56.614Z,101313.59
2022-12-11T02:18:30.714Z,101310.91
2022-12-11T02:21:08.893Z,101314.31
2022-12-11T02:24:00.608Z,101311.72
2022-12-11T02:26:36.890Z,101306.41
2022-12-11T02:29:10.882Z,101302.19
2022-12-11T02:31:56.767Z,101296.16
2022-12-11T02:34:30.854Z,101297.69
2022-12-11T02:37:02.267Z,101298.50
2022-12-11T02:39:31.223Z,101293.31
2022-12-11T02:41:59.683Z,101286.50
2022-12-11T02:44:30.301Z,101289.09
2022-12-11T02:46:59.308Z,101290.72
2022-12-11T02:49:26.861Z,101295.91
2022-12-11T02:51:56.628Z,101293.09
2022-12-11T02:54:30.212Z,101282.03
2022-12-11T02:57:06.327Z,101291.47
2022-12-11T02:59:41.535Z,101293.09
2022-12-11T03:02:08.343Z,101298.19
2022-12-11T03:04:36.549Z,101287.81
2022-12-11T03:07:12.383Z,101292.88
2022-12-11T03:09:43.320Z,101296.28
2022-12-11T03:12:12.708Z,101284.16
2022-12-11T03:14:42.050Z,101289.34
2022-12-11T03:17:16.745Z,101297.13
2022-12-11T03:19:50.123Z,101292.78
2022-12-11T03:22:22.094Z,101296.06
2022-12-11T03:24:58.484Z,101306.44
2022-12-11T03:27:36.656Z,101296.91
2022-12-11T03:30:16.319Z,101305.50
2022-12-11T03:32:50.267Z,101293.38
2022-12-11T03:35:23.381Z,101295.84
2022-12-11T03:37:53.029Z,101294.09
2022-12-11T03:40:21.371Z,101293.25
2022-12-11T03:42:51.516Z,101296.66
2022-12-11T03:45:20.646Z,101305.28
2022-12-11T03:47:48.179Z,101288.78
2022-12-11T03:50:19.212Z,101287.94
2022-12-11T03:52:47.737Z,101289.72
2022-12-11T03:55:17.163Z,101290.53
2022-12-11T03:57:43.993Z,101286.19
2022-12-11T04:00:13.899Z,101278.50
2022-12-11T04:02:41.468Z,101278.50
2022-12-11T04:05:09.617Z,101280.16
2022-12-11T04:07:36.405Z,101281.84
2022-12-11T04:10:04.693Z,101286.19
2022-12-11T04:12:31.261Z,101279.34
2022-12-11T04:15:03.567Z,101287.94
2022-12-11T04:17:50.770Z,101280.16
2022-12-11T04:20:35.784Z,101280.16
2022-12-11T04:23:32.216Z,101282.75
2022-12-11T04:26:12.007Z,101279.47
2022-12-11T04:28:38.898Z,101279.47
2022-12-11T04:31:05.672Z,101266.38
2022-12-11T04:33:32.311Z,101259.53
2022-12-11T04:35:59.705Z,101262.13
2022-12-11T04:38:26.817Z,101259.41
2022-12-11T04:41:12.566Z,101267.19
2022-12-11T04:43:39.911Z,101262.00
2022-12-11T04:46:12.754Z,101265.53
2022-12-11T04:48:39.841Z,101256.94
2022-12-11T04:51:07.727Z,101262.13
2022-12-11T04:53:34.841Z,101259.41
2022-12-11T04:56:01.721Z,101256.00
2022-12-11T04:58:28.463Z,101257.91
2022-12-11T05:00:54.969Z,101251.88
2022-12-11T05:03:22.048Z,101258.00
2022-12-11T05:05:50.707Z,101258.72
2022-12-11T05:08:21.606Z,101256.22
2022-12-11T05:10:59.793Z,101265.78
2022-12-11T05:13:27.393Z,101269.19
2022-12-11T05:15:54.196Z,101273.56
2022-12-11T05:18:21.046Z,101268.28
2022-12-11T05:21:09.121Z,101268.28
2022-12-11T05:23:36.422Z,101264.94
2022-12-11T05:26:06.107Z,101257.16
2022-12-11T05:28:35.348Z,101266.72
2022-12-11T05:31:14.631Z,101259.75
2022-12-11T05:33:41.697Z,101260.81
2022-12-11T05:36:09.790Z,101257.28
2022-12-11T05:38:36.301Z,101253.03
2022-12-11T05:41:05.914Z,101242.66
2022-12-11T05:43:34.861Z,101248.56
2022-12-11T05:46:09.827Z,101250.34
2022-12-11T05:48:36.859Z,101260.00
2022-12-11T05:51:04.961Z,101260.81
2022-12-11T05:53:31.738Z,101252.22
2022-12-11T05:56:08.860Z,101264.47
2022-12-11T05:58:35.951Z,101257.53
2022-12-11T06:01:07.705Z,101250.56
2022-12-11T06:03:34.203Z,101249.84
2022-12-11T06:06:05.939Z,101242.06
2022-12-11T06:08:32.896Z,101244.66
2022-12-11T06:10:59.722Z,101236.19
2022-12-11T06:13:27.094Z,101245.50
2022-12-11T06:15:53.571Z,101241.13
2022-12-11T06:18:20.103Z,101239.59
2022-12-11T06:20:46.666Z,101238.66
2022-12-11T06:23:13.254Z,101243.13
2022-12-11T06:25:40.228Z,101250.91
2022-12-11T06:28:06.980Z,101243.97
2022-12-11T06:30:39.153Z,101243.13
2022-12-11T06:33:06.332Z,101249.25
2022-12-11T06:35:35.138Z,101236.28
2022-12-11T06:38:06.668Z,101250.91
2022-12-11T06:40:33.135Z,101243.13
2022-12-11T06:42:59.596Z,101249.16
2022-12-11T06:45:26.423Z,101250.19
2022-12-11T06:47:52.990Z,101256.31
2022-12-11T06:50:19.670Z,101255.38
2022-12-11T06:52:46.134Z,101260.56
2022-12-11T06:55:12.993Z,101271.75
2022-12-11T06:57:39.802Z,101273.66
2022-12-11T07:00:07.079Z,101262.47
2022-12-11T07:02:34.426Z,101259.88
2022-12-11T07:05:00.991Z,101262.47
2022-12-11T07:07:27.545Z,101265.88
2022-12-11T07:09:54.101Z,101262.47
2022-12-11T07:12:21.128Z,101264.94
2022-12-11T07:14:47.625Z,101262.47
2022-12-11T07:17:14.164Z,101270.25
2022-12-11T07:19:41.017Z,101277.19
2022-12-11T07:22:07.569Z,101272.09
2022-12-11T07:24:34.115Z,101271.06
2022-12-11T07:27:00.723Z,101269.28
2022-12-11T07:29:27.329Z,101266.69
2022-12-11T07:31:54.178Z,101276.94
2022-12-11T07:34:20.838Z,101273.53
2022-12-11T07:36:47.386Z,101274.25
2022-12-11T07:39:13.959Z,101275.91
2022-12-11T07:41:40.570Z,101277.53
2022-12-11T07:44:07.118Z,101272.47
2022-12-11T07:46:34.554Z,101274.34
2022-12-11T07:49:01.503Z,101280.34
2022-12-11T07:51:31.186Z,101280.50
2022-12-11T07:54:00.558Z,101278.84
2022-12-11T07:56:28.604Z,101283.91
2022-12-11T07:58:55.556Z,101286.50
2022-12-11T08:01:25.979Z,101279.66
2022-12-11T08:03:53.648Z,101291.81
2022-12-11T08:06:24.972Z,101290.03
2022-12-11T08:08:53.060Z,101285.69
2022-12-11T08:11:19.597Z,101288.41
2022-12-11T08:13:46.277Z,101285.81
2022-12-11T08:16:14.947Z,101285.81
2022-12-11T08:18:42.148Z,101291.09
2022-12-11T08:21:11.088Z,101300.63
2022-12-11T08:23:37.922Z,101291.09
2022-12-11T08:26:06.390Z,101292.16
2022-12-11T08:28:33.190Z,101295.66
2022-12-11T08:31:00.303Z,101294.75
2022-12-11T08:33:26.981Z,101293.91
2022-12-11T08:35:53.488Z,101289.56
2022-12-11T08:38:25.211Z,101289.56
2022-12-11T08:40:52.117Z,101287.78
2022-12-11T08:43:18.614Z,101288.50
2022-12-11T08:45:46.775Z,101291.22
2022-12-11T08:48:13.376Z,101297.34
2022-12-11T08:50:39.881Z,101289.56
2022-12-11T08:53:06.459Z,101290.38
2022-12-11T08:55:33.402Z,101284.25
2022-12-11T08:58:00.304Z,101281.53
2022-12-11T09:00:26.867Z,101281.44
2022-12-11T09:02:53.409Z,101280.63
2022-12-11T09:05:20.087Z,101281.53
2022-12-11T09:07:46.805Z,101281.53
2022-12-11T09:10:13.431Z,101282.38
2022-12-11T09:12:40.113Z,101275.44
2022-12-11T09:15:07.035Z,101282.13
2022-12-11T09:17:34.698Z,101274.25
2022-12-11T09:20:01.535Z,101277.53
2022-12-11T09:22:28.542Z,101267.06
2022-12-11T09:24:55.072Z,101268.13
2022-12-11T09:27:22.142Z,101265.06
2022-12-11T09:29:49.318Z,101262.13
2022-12-11T09:32:15.846Z,101265.19
2022-12-11T09:34:42.394Z,101266.50
2022-12-11T09:37:09.280Z,101262.03
2022-12-11T09:39:35.738Z,101264.50
2022-12-11T09:42:07.785Z,101262.50
2022-12-11T09:44:45.958Z,101262.16
2022-12-11T09:47:20.925Z,101257.78
2022-12-11T09:49:49.748Z,101263.56
2022-12-11T09:52:23.386Z,101261.47
2022-12-11T09:54:56.202Z,101251.09
2022-12-11T09:57:28.874Z,101261.22
2022-12-11T10:00:13.946Z,101261.69
2022-12-11T10:03:12.732Z,101259.22
2022-12-11T10:06:05.044Z,101250.25
2022-12-11T10:08:46.755Z,101260.06
2022-12-11T10:11:34.699Z,101254.75
2022-12-11T10:14:17.014Z,101250.72
2022-12-11T10:16:57.911Z,101257.31
2022-12-11T10:19:30.160Z,101256.38
2022-12-11T10:21:58.592Z,101255.31
2022-12-11T10:25:09.462Z,101258.88
2022-12-11T10:27:31.398Z,101256.50
2022-12-11T10:30:13.498Z,101252.38
2022-12-11T10:33:18.230Z,101252.38
2022-12-11T10:35:55.761Z,101253.09
2022-12-11T10:38:30.237Z,101248.34
2022-12-11T10:41:03.881Z,101253.16
2022-12-11T10:43:44.280Z,101248.56
2022-12-11T10:46:18.572Z,101247.28
2022-12-11T10:48:54.702Z,101246.22
2022-12-11T10:51:24.160Z,101242.75
2022-12-11T10:53:58.154Z,101247.28
2022-12-11T10:56:29.643Z,101242.19
2022-12-11T10:58:58.510Z,101236.16
2022-12-11T11:01:27.967Z,101240.31
2022-12-11T11:03:57.538Z,101235.69
2022-12-11T11:06:25.064Z,101237.69
2022-12-11T11:08:59.065Z,101236.75
2022-12-11T11:11:38.117Z,101235.47
2022-12-11T11:14:19.636Z,101232.75
2022-12-11T11:16:48.689Z,101231.09
2022-12-11T11:19:36.263Z,101230.16
2022-12-11T11:22:12.766Z,101222.13
2022-12-11T11:24:45.306Z,101222.56
2022-12-11T11:27:32.080Z,101216.91
2022-12-11T11:30:03.659Z,101219.63
2022-12-11T11:32:30.166Z,101218.53
2022-12-11T11:35:06.618Z,101213.00
2022-12-11T11:37:34.358Z,101211.66
2022-12-11T11:40:11.116Z,101221.25
2022-12-11T11:42:49.985Z,101218.50
2022-12-11T11:45:24.479Z,101213.06
2022-12-11T11:48:16.656Z,101211.19
2022-12-11T11:50:46.416Z,101202.44
2022-12-11T11:53:20.873Z,101205.47
2022-12-11T11:55:58.539Z,101203.84
2022-12-11T11:58:33.304Z,101203.84
2022-12-11T12:00:59.814Z,101194.16
2022-12-11T12:03:28.735Z,101198.97
2022-12-11T12:05:57.786Z,101198.72
2022-12-11T12:08:42.747Z,101192.81
2022-12-11T12:11:16.371Z,101195.66
2022-12-11T12:13:54.287Z,101192.47
2022-12-11T12:16:56.372Z,101192.75
2022-12-11T12:19:41.777Z,101187.09
2022-12-11T12:22:31.173Z,101193.09
2022-12-11T12:25:21.098Z,101186.84
2022-12-11T12:28:14.656Z,101187.66
2022-12-11T12:31:16.367Z,101184.81
2022-12-11T12:34:17.289Z,101183.75
2022-12-11T12:37:17.447Z,101185.97
2022-12-11T12:40:02.758Z,101189.41
2022-12-11T12:42:39.128Z,101187.50
2022-12-11T12:45:23.033Z,101185.72
2022-12-11T12:47:53.519Z,101179.72
2022-12-11T12:50:23.819Z,101179.72
2022-12-11T12:52:53.012Z,101183.38
2022-12-11T12:55:24.670Z,101177.22
2022-12-11T12:58:07.795Z,101174.75
2022-12-11T13:00:40.252Z,101180.91
2022-12-11T13:03:23.481Z,101181.97
2022-12-11T13:06:06.070Z,101173.72
2022-12-11T13:09:10.738Z,101179.19
2022-12-11T13:11:37.274Z,101182.72
2022-12-11T13:14:15.620Z,101187.66
2022-12-11T13:16:44.375Z,101187.81
2022-12-11T13:19:23.271Z,101181.78
2022-12-11T13:22:14.730Z,101185.31
2022-12-11T13:24:53.448Z,101187.09
2022-12-11T13:27:29.995Z,101189.09
2022-12-11T13:30:22.928Z,101190.78
2022-12-11T13:33:07.615Z,101192.41
2022-12-11T13:35:35.425Z,101197.38
2022-12-11T13:38:07.092Z,101192.28
2022-12-11T13:40:39.455Z,101190.63
2022-12-11T13:43:28.932Z,101195.97
2022-12-11T13:46:01.713Z,101199.50
2022-12-11T13:48:34.693Z,101190.88
2022-12-11T13:51:02.689Z,101200.31
2022-12-11T13:53:29.550Z,101196.06
2022-12-11T13:56:05.007Z,101191.94
2022-12-11T13:58:35.531Z,101192.22
2022-12-11T14:01:11.304Z,101199.53
2022-12-11T14:03:48.160Z,101204.72
2022-12-11T14:06:18.804Z,101203.91
2022-12-11T14:08:52.889Z,101195.44
2022-12-11T14:11:30.100Z,101199.19
2022-12-11T14:14:00.476Z,101203.69
2022-12-11T14:16:27.810Z,101196.72
2022-12-11T14:18:59.758Z,101196.16
2022-12-11T14:21:26.390Z,101201.47
2022-12-11T14:23:56.489Z,101199.81
2022-12-11T14:26:26.108Z,101207.72
2022-12-11T14:28:52.975Z,101206.91
2022-12-11T14:31:57.184Z,101195.81
2022-12-11T14:34:36.454Z,101201.81
2022-12-11T14:37:06.444Z,101201.81
2022-12-11T14:39:45.461Z,101196.75
2022-12-11T14:42:18.065Z,101200.31
2022-12-11T14:45:11.813Z,101197.72
2022-12-11T14:47:42.747Z,101202.78
2022-12-11T14:50:26.277Z,101197.72
2022-12-11T14:53:00.646Z,101205.38
2022-12-11T14:55:34.975Z,101198.41
2022-12-11T14:58:14.196Z,101211.38
2022-12-11T15:00:40.855Z,101200.31
2022-12-11T15:03:10.411Z,101205.03
2022-12-11T15:05:50.010Z,101203.25
2022-12-11T15:08:28.571Z,101208.44
2022-12-11T15:11:14.154Z,101212.81
2022-12-11T15:13:58.946Z,101205.16
2022-12-11T15:16:28.078Z,101207.75
2022-12-11T15:18:56.142Z,101216.50
2022-12-11T15:21:35.364Z,101214.25
2022-12-11T15:24:06.991Z,101215.06
2022-12-11T15:26:47.936Z,101210.81
2022-12-11T15:29:33.316Z,101212.59
2022-12-11T15:32:21.747Z,101215.31
2022-12-11T15:34:56.312Z,101211.88
2022-12-11T15:37:30.809Z,101218.03
2022-12-11T15:39:59.943Z,101212.97
2022-12-11T15:42:30.304Z,101219.94
2022-12-11T15:44:57.776Z,101222.63
2022-12-11T15:47:28.061Z,101225.34
2022-12-11T15:50:16.536Z,101224.53
2022-12-11T15:52:43.746Z,101229.72
2022-12-11T15:55:11.252Z,101228.06
2022-12-11T15:57:40.339Z,101227.13
2022-12-11T16:00:07.635Z,101233.25
2022-12-11T16:02:34.353Z,101230.78
2022-12-11T16:05:00.992Z,101230.91
2022-12-11T16:07:30.241Z,101226.66
2022-12-11T16:09:56.727Z,101234.44
2022-12-11T16:12:23.220Z,101228.56
2022-12-11T16:14:49.699Z,101231.16
2022-12-11T16:17:16.358Z,101231.84
2022-12-11T16:19:44.690Z,101224.19
2022-12-11T16:22:13.239Z,101225.13
2022-12-11T16:24:40.439Z,101225.13
2022-12-11T16:27:09.420Z,101230.44
2022-12-11T16:29:38.203Z,101226.88
2022-12-11T16:32:07.075Z,101221.69
2022-12-11T16:34:34.758Z,101224.41
2022-12-11T16:37:02.179Z,101228.66
2022-12-11T16:39:29.017Z,101221.81
2022-12-11T16:41:55.516Z,101224.41
2022-12-11T16:44:24.910Z,101225.47
2022-12-11T16:46:52.798Z,101223.81
2022-12-11T16:49:20.666Z,101222.28
2022-12-11T16:51:49.230Z,101226.66
2022-12-11T16:54:16.532Z,101221.69
2022-12-11T16:56:43.168Z,101223.38
2022-12-11T16:59:09.781Z,101221.47
2022-12-11T17:01:36.465Z,101220.53
2022-12-11T17:04:03.009Z,101223.22
2022-12-11T17:06:29.658Z,101214.63
2022-12-11T17:08:56.525Z,101223.22
2022-12-11T17:11:25.024Z,101215.44
2022-12-11T17:13:55.975Z,101224.06
2022-12-11T17:16:24.877Z,101223.13
2022-12-11T17:18:52.290Z,101219.69
2022-12-11T17:21:20.809Z,101223.38
2022-12-11T17:23:47.377Z,101216.63
2022-12-11T17:26:14.673Z,101221.97
2022-12-11T17:28:41.229Z,101222.06
2022-12-11T17:31:09.966Z,101221.97
2022-12-11T17:33:36.355Z,101227.16
2022-12-11T17:36:05.422Z,101219.34
2022-12-11T17:38:31.993Z,101232.34
2022-12-11T17:40:58.777Z,101217.81
2022-12-11T17:43:25.357Z,101228.19
2022-12-11T17:45:52.910Z,101231.63
2022-12-11T17:48:22.356Z,101225.47
2022-12-11T17:50:50.045Z,101226.44
2022-12-11T17:53:18.342Z,101224.88
2022-12-11T17:55:46.329Z,101232.56
2022-12-11T17:58:18.318Z,101223.97
2022-12-11T18:00:46.457Z,101221.47
2022-12-11T18:03:13.343Z,101225.84
2022-12-11T18:05:45.981Z,101229.25
2022-12-11T18:08:14.839Z,101229.25
2022-12-11T18:10:41.795Z,101228.44
2022-12-11T18:13:08.784Z,101232.78
2022-12-11T18:15:35.847Z,101240.72
2022-12-11T18:18:02.369Z,101229.16
2022-12-11T18:20:30.336Z,101240.44
2022-12-11T18:22:56.954Z,101241.41
2022-12-11T18:25:24.057Z,101236.22
2022-12-11T18:27:51.537Z,101236.22
2022-12-11T18:30:19.581Z,101236.06
2022-12-11T18:32:46.179Z,101233.63
2022-12-11T18:35:12.978Z,101239.63
2022-12-11T18:37:41.099Z,101242.22
2022-12-11T18:40:08.899Z,101241.41
2022-12-11T18:42:36.114Z,101239.75
2022-12-11T18:45:03.294Z,101236.22
2022-12-11T18:47:29.774Z,101243.31
2022-12-11T18:49:56.257Z,101240.72
2022-12-11T18:52:22.826Z,101242.44
2022-12-11T18:54:51.426Z,101246.81
2022-12-11T18:57:18.161Z,101253.91
2022-12-11T18:59:44.953Z,101250.59
2022-12-11T19:02:12.536Z,101246.44
2022-12-11T19:04:39.181Z,101245.75
2022-12-11T19:07:05.718Z,101243.16
2022-12-11T19:09:36.999Z,101241.63
2022-12-11T19:12:05.099Z,101234.88
2022-12-11T19:14:31.590Z,101238.19
2022-12-11T19:16:58.340Z,101239.97
2022-12-11T19:19:24.871Z,101236.66
2022-12-11T19:21:51.713Z,101242.66
2022-12-11T19:24:21.567Z,101235.00
2022-12-11T19:26:48.412Z,101242.09
2022-12-11T19:29:29.376Z,101242.19
2022-12-11T19:31:56.086Z,101239.75
2022-12-11T19:34:23.743Z,101236.19
2022-12-11T19:36:50.617Z,101236.19
2022-12-11T19:39:17.755Z,101237.16
2022-12-11T19:41:44.296Z,101239.97
2022-12-11T19:44:11.566Z,101240.91
2022-12-11T19:46:38.897Z,101244.31
2022-12-11T19:49:05.940Z,101239.00
2022-12-11T19:51:38.237Z,101245.84
2022-12-11T19:54:07.939Z,101247.63
2022-12-11T19:56:35.738Z,101246.69
2022-12-11T19:59:05.584Z,101248.56
2022-12-11T20:01:34.415Z,101243.59
2022-12-11T20:04:04.491Z,101242.19
2022-12-11T20:06:35.379Z,101244.91
2022-12-11T20:09:03.568Z,101249.25
2022-12-11T20:11:31.880Z,101251.38
2022-12-11T20:13:58.801Z,101251.50
2022-12-11T20:16:53.395Z,101253.13
2022-12-11T20:19:12.256Z,101251.38
2022-12-11T20:21:38.779Z,101254.91
2022-12-11T20:24:05.612Z,101247.22
2022-12-11T20:26:35.958Z,101256.69
2022-12-11T20:29:05.295Z,101253.25
2022-12-11T20:31:33.108Z,101260.91
2022-12-11T20:33:59.786Z,101265.16
2022-12-11T20:36:26.945Z,101259.88
2022-12-11T20:38:53.789Z,101264.94
2022-12-11T20:41:23.243Z,101259.88
2022-12-11T20:43:50.570Z,101255.34
2022-12-11T20:46:18.528Z,101256.66
2022-12-11T20:48:45.905Z,101252.97
2022-12-11T20:51:14.545Z,101258.91
2022-12-11T20:53:42.360Z,101262.09
2022-12-11T20:56:29.016Z,101271.41
2022-12-11T20:58:56.653Z,101264.47
2022-12-11T21:01:25.830Z,101262.69
2022-12-11T21:03:53.676Z,101269.63
2022-12-11T21:06:20.200Z,101268.44
2022-12-11T21:08:46.848Z,101268.53
2022-12-11T21:11:13.525Z,101270.91
2022-12-11T21:13:40.472Z,101268.09
2022-12-11T21:16:08.545Z,101266.66
2022-12-11T21:18:35.123Z,101264.75
2022-12-11T21:21:01.885Z,101271.69
2022-12-11T21:23:28.488Z,101268.75
2022-12-11T21:25:57.924Z,101268.53
2022-12-11T21:28:24.452Z,101264.44
2022-12-11T21:30:51.169Z,101259.47
2022-12-11T21:33:17.693Z,101254.28
2022-12-11T21:35:44.389Z,101254.97
2022-12-11T21:38:11.009Z,101259.13
2022-12-11T21:40:37.520Z,101252.16
2022-12-11T21:43:03.984Z,101255.47
2022-12-11T21:48:20.889Z,101257.94
2022-12-11T21:50:47.468Z,101266.53
2022-12-11T21:53:13.971Z,101265.84
2022-12-11T21:55:42.362Z,101268.44
2022-12-11T21:58:09.437Z,101268.66
2022-12-11T22:00:38.287Z,101274.06
2022-12-11T22:03:05.058Z,101274.06
2022-12-11T22:05:31.618Z,101276.44
2022-12-11T22:07:58.283Z,101280.69
2022-12-11T22:10:24.917Z,101279.03
2022-12-11T22:12:51.897Z,101277.38
2022-12-11T22:15:18.474Z,101272.50
2022-12-11T22:17:45.216Z,101281.03
2022-12-11T22:20:11.861Z,101273.94
2022-12-11T22:22:38.319Z,101285.84
2022-12-11T22:25:07.801Z,101281.63
2022-12-11T22:27:34.454Z,101286.00
2022-12-11T22:30:01.012Z,101286.81
2022-12-11T22:32:27.809Z,101283.41
2022-12-11T22:34:56.313Z,101287.63
2022-12-11T22:37:22.993Z,101284.22
2022-12-11T22:39:49.692Z,101286.22
2022-12-11T22:42:16.603Z,101295.53
2022-12-11T22:44:43.126Z,101289.16
2022-12-11T22:47:09.655Z,101295.84
2022-12-11T22:49:36.197Z,101299.28
2022-12-11T22:52:03.209Z,101297.28
2022-12-11T22:54:29.816Z,101295.63
2022-12-11T22:56:56.288Z,101292.09
2022-12-11T22:59:23.326Z,101294.69
2022-12-11T23:01:49.964Z,101286.22
2022-12-11T23:04:16.479Z,101288.69
2022-12-11T23:06:43.031Z,101286.91
2022-12-11T23:09:10.675Z,101289.63
2022-12-11T23:11:38.936Z,101292.22
2022-12-11T23:14:07.793Z,101298.34
2022-12-11T23:16:34.533Z,101294.09
2022-12-11T23:19:01.267Z,101290.66
2022-12-11T23:21:28.756Z,101293.97
2022-12-11T23:23:56.746Z,101288.19
2022-12-11T23:26:23.435Z,101297.75
2022-12-11T23:28:50.435Z,101291.84
2022-12-11T23:31:17.217Z,101290.06
2022-12-11T23:33:43.913Z,101290.78
2022-12-11T23:36:10.877Z,101284.88
2022-12-11T23:38:38.234Z,101290.06
2022-12-11T23:41:06.126Z,101291.00
2022-12-11T23:43:35.326Z,101284.88
2022-12-11T23:46:03.328Z,101290.19
2022-12-11T23:48:30.104Z,101290.91
2022-12-11T23:51:01.115Z,101296.91
2022-12-11T23:53:28.769Z,101298.78
2022-12-11T23:55:55.416Z,101302.31
2022-12-11T23:58:22.451Z,101301.59
